createdAt,value
2022-11-16T00:01:15.271Z,3.28
2022-11-16T00:03:43.092Z,3.20
2022-11-16T00:06:11.513Z,3.22
2022-11-16T00:08:43.873Z,3.18
2022-11-16T00:11:18.979Z,2.99
2022-11-16T00:13:46.031Z,2.69
2022-11-16T00:16:15.838Z,2.85
2022-11-16T00:18:43.555Z,2.59
2022-11-16T00:21:10.412Z,2.27
2022-11-16T00:23:38.807Z,2.34
2022-11-16T00:26:07.530Z,2.15
2022-11-16T00:28:34.717Z,2.25
2022-11-16T00:31:04.265Z,2.39
2022-11-16T00:33:31.530Z,2.35
2022-11-16T00:36:00.631Z,2.38
2022-11-16T00:38:27.403Z,2.33
2022-11-16T00:40:54.133Z,2.61
2022-11-16T00:43:20.899Z,2.51
2022-11-16T00:45:47.779Z,2.65
2022-11-16T00:48:14.431Z,2.88
2022-11-16T00:50:41.325Z,2.94
2022-11-16T00:53:12.190Z,2.98
2022-11-16T00:55:39.391Z,2.95
2022-11-16T00:58:06.404Z,2.85
2022-11-16T01:00:33.365Z,2.85
2022-11-16T01:03:00.125Z,2.66
2022-11-16T01:05:26.828Z,2.71
2022-11-16T01:07:53.767Z,2.58
2022-11-16T01:10:22.638Z,2.38
2022-11-16T01:12:51.038Z,2.29
2022-11-16T01:15:20.207Z,2.25
2022-11-16T01:17:46.775Z,2.31
2022-11-16T01:20:16.517Z,2.18
2022-11-16T01:22:43.719Z,2.09
2022-11-16T01:25:12.519Z,2.13
2022-11-16T01:27:40.072Z,2.00
2022-11-16T01:30:10.327Z,2.17
2022-11-16T01:32:37.589Z,2.02
2022-11-16T01:35:05.921Z,2.20
2022-11-16T01:37:33.318Z,2.06
2022-11-16T01:39:59.956Z,2.05
2022-11-16T01:42:30.047Z,2.27
2022-11-16T01:45:00.493Z,2.14
2022-11-16T01:47:27.889Z,2.13
2022-11-16T01:50:00.921Z,1.77
2022-11-16T01:52:32.925Z,1.73
2022-11-16T01:54:59.895Z,1.63
2022-11-16T01:57:34.129Z,1.53
2022-11-16T02:00:03.841Z,1.65
2022-11-16T02:02:30.762Z,1.51
2022-11-16T02:04:59.937Z,1.81
2022-11-16T02:08:03.210Z,1.83
2022-11-16T02:11:13.113Z,1.58
2022-11-16T02:13:51.649Z,1.57
2022-11-16T02:16:21.140Z,1.47
2022-11-16T02:18:53.135Z,1.49
2022-11-16T02:21:44.230Z,1.43
2022-11-16T02:24:30.020Z,1.40
2022-11-16T02:27:32.286Z,1.36
2022-11-16T02:29:59.319Z,1.26
2022-11-16T02:32:37.567Z,1.13
2022-11-16T02:35:18.510Z,1.38
2022-11-16T02:37:54.767Z,1.43
2022-11-16T02:40:26.230Z,1.25
2022-11-16T02:43:34.583Z,1.33
2022-11-16T02:46:05.477Z,1.41
2022-11-16T02:48:38.041Z,1.43
2022-11-16T02:51:06.534Z,1.46
2022-11-16T02:53:40.427Z,1.46
2022-11-16T02:56:07.323Z,1.50
2022-11-16T02:58:34.477Z,1.43
2022-11-16T03:01:30.086Z,1.55
2022-11-16T03:04:11.540Z,1.61
2022-11-16T03:06:41.617Z,1.52
2022-11-16T03:09:18.533Z,1.52
2022-11-16T03:12:01.697Z,1.31
2022-11-16T03:14:34.230Z,1.59
2022-11-16T03:17:03.868Z,1.79
2022-11-16T03:19:41.748Z,1.69
2022-11-16T03:22:19.958Z,1.71
2022-11-16T03:24:47.506Z,1.91
2022-11-16T03:27:51.879Z,1.86
2022-11-16T03:30:24.014Z,1.83
2022-11-16T03:33:15.641Z,1.85
2022-11-16T03:35:47.003Z,1.74
2022-11-16T03:38:16.064Z,1.68
2022-11-16T03:40:46.192Z,1.64
2022-11-16T03:43:15.651Z,1.64
2022-11-16T03:45:43.534Z,1.58
2022-11-16T03:48:11.613Z,1.68
2022-11-16T03:50:39.091Z,1.77
2022-11-16T03:53:05.729Z,1.68
2022-11-16T03:55:32.373Z,1.58
2022-11-16T03:57:59.033Z,1.48
2022-11-16T04:00:25.675Z,1.70
2022-11-16T04:02:52.245Z,1.69
2022-11-16T04:05:37.398Z,1.61
2022-11-16T04:08:22.491Z,1.52
2022-11-16T04:11:07.729Z,1.84
2022-11-16T04:13:53.928Z,1.91
2022-11-16T04:16:39.050Z,2.02
2022-11-16T04:19:24.320Z,2.03
2022-11-16T04:22:14.493Z,2.05
2022-11-16T04:24:46.826Z,2.09
2022-11-16T04:27:32.932Z,2.02
2022-11-16T04:30:01.354Z,1.72
2022-11-16T04:32:47.096Z,1.71
2022-11-16T04:35:32.715Z,1.83
2022-11-16T04:38:00.080Z,2.08
2022-11-16T04:40:30.613Z,2.09
2022-11-16T04:42:59.719Z,2.20
2022-11-16T04:45:46.852Z,2.12
2022-11-16T04:48:15.403Z,1.95
2022-11-16T04:50:42.454Z,2.04
2022-11-16T04:53:09.898Z,2.05
2022-11-16T04:55:36.547Z,1.99
2022-11-16T04:58:03.554Z,2.12
2022-11-16T05:00:30.330Z,2.16
2022-11-16T05:03:01.299Z,2.11
2022-11-16T05:05:29.086Z,2.23
2022-11-16T05:07:55.797Z,2.41
2022-11-16T05:10:22.598Z,2.45
2022-11-16T05:12:49.389Z,2.25
2022-11-16T05:15:17.870Z,2.14
2022-11-16T05:17:44.435Z,2.31
2022-11-16T05:20:30.233Z,2.45
2022-11-16T05:22:58.470Z,2.46
2022-11-16T05:25:25.437Z,2.49
2022-11-16T05:27:52.265Z,2.27
2022-11-16T05:30:19.164Z,2.57
2022-11-16T05:32:46.019Z,2.57
2022-11-16T05:35:12.939Z,2.45
2022-11-16T05:37:40.034Z,2.60
2022-11-16T05:40:07.718Z,2.71
2022-11-16T05:42:34.867Z,2.68
2022-11-16T05:45:01.584Z,2.69
2022-11-16T05:47:28.303Z,2.54
2022-11-16T05:49:54.950Z,2.52
2022-11-16T05:52:21.588Z,2.70
2022-11-16T05:54:48.194Z,2.73
2022-11-16T05:57:15.527Z,2.81
2022-11-16T05:59:42.719Z,2.83
2022-11-16T06:02:09.544Z,2.89
2022-11-16T06:04:36.174Z,2.96
2022-11-16T06:07:02.953Z,2.94
2022-11-16T06:09:29.830Z,2.94
2022-11-16T06:11:56.549Z,2.77
2022-11-16T06:14:23.227Z,2.86
2022-11-16T06:16:49.972Z,2.86
2022-11-16T06:19:16.681Z,2.88
2022-11-16T06:21:43.316Z,2.83
2022-11-16T06:24:09.989Z,2.95
2022-11-16T06:26:37.188Z,2.96
2022-11-16T06:29:04.267Z,3.12
2022-11-16T06:31:31.214Z,3.18
2022-11-16T06:33:57.827Z,3.25
2022-11-16T06:36:24.421Z,3.30
2022-11-16T06:38:51.343Z,3.21
2022-11-16T06:41:18.331Z,3.20
2022-11-16T06:43:45.179Z,3.45
2022-11-16T06:46:11.889Z,3.71
2022-11-16T06:48:38.655Z,3.79
2022-11-16T06:51:05.460Z,3.94
2022-11-16T06:53:32.449Z,4.25
2022-11-16T06:56:04.172Z,4.29
2022-11-16T06:58:32.320Z,4.41
2022-11-16T07:01:09.138Z,4.46
2022-11-16T07:03:35.818Z,4.54
2022-11-16T07:06:11.409Z,4.66
2022-11-16T07:08:38.882Z,4.67
2022-11-16T07:11:07.250Z,4.74
2022-11-16T07:13:35.387Z,4.86
2022-11-16T07:16:04.552Z,4.88
2022-11-16T07:18:39.808Z,4.98
2022-11-16T07:21:12.168Z,4.88
2022-11-16T07:23:39.358Z,4.86
2022-11-16T07:26:08.206Z,4.68
2022-11-16T07:28:35.829Z,4.60
2022-11-16T07:31:04.773Z,4.81
2022-11-16T07:33:32.129Z,4.71
2022-11-16T07:36:11.253Z,4.66
2022-11-16T07:38:38.386Z,4.76
2022-11-16T07:41:10.356Z,4.74
2022-11-16T07:43:37.195Z,4.99
2022-11-16T07:49:07.035Z,5.27
2022-11-16T07:51:36.985Z,5.22
2022-11-16T07:54:03.675Z,5.43
2022-11-16T07:56:30.524Z,5.35
2022-11-16T07:58:57.314Z,5.56
2022-11-16T08:01:24.041Z,5.60
2022-11-16T08:03:54.286Z,5.71
2022-11-16T08:06:27.136Z,5.51
2022-11-16T08:08:58.562Z,5.63
2022-11-16T08:11:26.602Z,5.80
2022-11-16T08:13:53.323Z,6.04
2022-11-16T08:16:22.270Z,5.98
2022-11-16T08:18:49.301Z,6.15
2022-11-16T08:21:18.473Z,6.21
2022-11-16T08:23:45.905Z,6.28
2022-11-16T08:26:16.480Z,6.33
2022-11-16T08:28:44.895Z,6.48
2022-11-16T08:31:17.684Z,6.51
2022-11-16T08:33:45.102Z,6.70
2022-11-16T08:36:17.224Z,6.71
2022-11-16T08:38:46.323Z,6.68
2022-11-16T08:41:13.590Z,6.90
2022-11-16T08:43:43.590Z,6.92
2022-11-16T08:46:11.611Z,6.65
2022-11-16T08:48:38.921Z,7.14
2022-11-16T08:51:25.238Z,6.92
2022-11-16T08:53:59.668Z,6.98
2022-11-16T08:56:27.575Z,7.11
2022-11-16T08:58:58.395Z,7.22
2022-11-16T09:01:27.921Z,7.37
2022-11-16T09:03:54.896Z,7.44
2022-11-16T09:06:23.321Z,7.58
2022-11-16T09:08:51.083Z,7.64
2022-11-16T09:11:19.975Z,7.46
2022-11-16T09:16:32.225Z,7.96
2022-11-16T09:18:58.886Z,8.16
2022-11-16T09:21:30.350Z,8.17
2022-11-16T09:23:58.464Z,8.37
2022-11-16T09:26:26.379Z,8.65
2022-11-16T09:28:58.504Z,8.95
2022-11-16T09:31:29.513Z,9.47
2022-11-16T09:33:58.918Z,9.54
2022-11-16T09:36:27.573Z,9.97
2022-11-16T09:39:19.422Z,9.39
2022-11-16T09:41:41.710Z,10.04
2022-11-16T09:44:24.168Z,9.89
2022-11-16T09:46:54.264Z,9.95
2022-11-16T09:49:31.012Z,9.66
2022-11-16T09:54:51.597Z,9.97
2022-11-16T09:57:26.111Z,9.87
2022-11-16T09:59:59.219Z,9.68
2022-11-16T10:02:37.515Z,9.60
2022-11-16T10:05:28.080Z,9.59
2022-11-16T10:08:06.539Z,9.59
2022-11-16T10:10:50.956Z,9.67
2022-11-16T10:13:35.740Z,9.53
2022-11-16T10:16:28.809Z,10.01
2022-11-16T10:19:22.576Z,9.86
2022-11-16T10:22:02.274Z,9.92
2022-11-16T10:24:54.824Z,10.05
2022-11-16T10:27:22.267Z,10.07
2022-11-16T10:30:27.382Z,10.05
2022-11-16T10:33:00.514Z,10.07
2022-11-16T10:35:27.159Z,10.05
2022-11-16T10:37:56.853Z,10.03
2022-11-16T10:40:30.579Z,10.34
2022-11-16T10:43:10.582Z,10.36
2022-11-16T10:45:58.394Z,10.71
2022-11-16T10:48:48.868Z,10.69
2022-11-16T10:51:16.012Z,10.96
2022-11-16T10:53:46.346Z,10.84
2022-11-16T10:56:37.691Z,10.83
2022-11-16T10:59:09.587Z,10.87
2022-11-16T11:01:39.532Z,11.12
2022-11-16T11:04:19.373Z,10.76
2022-11-16T11:06:48.929Z,10.40
2022-11-16T11:09:24.675Z,10.40
2022-11-16T11:12:19.777Z,10.53
2022-11-16T11:15:08.119Z,10.96
2022-11-16T11:17:36.231Z,10.95
2022-11-16T11:20:18.380Z,10.92
2022-11-16T11:23:04.638Z,10.56
2022-11-16T11:25:48.554Z,10.52
2022-11-16T11:28:34.716Z,10.48
2022-11-16T11:31:09.927Z,10.51
2022-11-16T11:33:39.764Z,9.99
2022-11-16T11:36:18.738Z,10.34
2022-11-16T11:39:12.942Z,10.65
2022-11-16T11:41:45.035Z,10.43
2022-11-16T11:44:19.841Z,10.26
2022-11-16T11:49:55.518Z,10.28
2022-11-16T11:52:40.649Z,10.32
2022-11-16T11:55:08.847Z,10.32
2022-11-16T11:57:44.135Z,10.56
2022-11-16T12:00:15.651Z,10.65
2022-11-16T12:02:56.389Z,10.68
2022-11-16T12:05:47.574Z,10.52
2022-11-16T12:08:24.061Z,10.45
2022-11-16T12:11:00.574Z,10.45
2022-11-16T12:14:02.530Z,10.47
2022-11-16T12:16:40.189Z,10.40
2022-11-16T12:19:31.702Z,10.41
2022-11-16T12:22:14.894Z,10.33
2022-11-16T12:25:07.464Z,10.21
2022-11-16T12:27:52.489Z,10.32
2022-11-16T12:30:22.326Z,10.22
2022-11-16T12:33:13.915Z,10.41
2022-11-16T12:35:59.309Z,10.48
2022-11-16T12:38:40.146Z,10.62
2022-11-16T12:41:38.440Z,10.67
2022-11-16T12:44:11.173Z,10.70
2022-11-16T12:46:56.954Z,10.67
2022-11-16T12:49:45.586Z,10.64
2022-11-16T12:52:39.530Z,10.78
2022-11-16T12:55:26.435Z,10.88
2022-11-16T12:58:12.257Z,11.03
2022-11-16T13:00:49.617Z,11.03
2022-11-16T13:03:29.673Z,10.78
2022-11-16T13:06:02.190Z,10.97
2022-11-16T13:08:47.236Z,11.09
2022-11-16T13:11:25.894Z,11.11
2022-11-16T13:13:58.164Z,10.89
2022-11-16T13:16:26.326Z,11.05
2022-11-16T13:18:55.218Z,11.31
2022-11-16T13:21:26.898Z,11.28
2022-11-16T13:24:18.567Z,11.31
2022-11-16T13:27:03.109Z,11.01
2022-11-16T13:29:50.475Z,11.45
2022-11-16T13:32:58.988Z,11.48
2022-11-16T13:35:26.462Z,11.39
2022-11-16T13:37:53.257Z,11.41
2022-11-16T13:40:29.089Z,11.36
2022-11-16T13:43:27.477Z,11.53
2022-11-16T13:45:58.980Z,11.45
2022-11-16T13:48:25.566Z,11.48
2022-11-16T13:50:55.994Z,11.28
2022-11-16T13:56:48.931Z,11.45
2022-11-16T13:59:16.922Z,11.14
2022-11-16T14:02:01.166Z,11.36
2022-11-16T14:04:53.272Z,11.32
2022-11-16T14:07:46.513Z,11.28
2022-11-16T14:10:35.028Z,11.29
2022-11-16T14:13:06.362Z,11.30
2022-11-16T14:15:35.894Z,11.21
2022-11-16T14:18:34.386Z,11.32
2022-11-16T14:21:27.471Z,11.17
2022-11-16T14:24:11.182Z,10.69
2022-11-16T14:27:13.799Z,11.09
2022-11-16T14:29:56.640Z,11.09
2022-11-16T14:32:32.039Z,11.10
2022-11-16T14:35:00.771Z,10.97
2022-11-16T14:37:32.565Z,10.95
2022-11-16T14:40:05.618Z,10.66
2022-11-16T14:42:54.386Z,11.12
2022-11-16T14:45:29.629Z,10.76
2022-11-16T14:48:02.773Z,10.77
2022-11-16T14:50:30.429Z,10.81
2022-11-16T14:53:02.809Z,10.81
2022-11-16T14:55:29.832Z,10.85
2022-11-16T14:58:17.982Z,10.78
2022-11-16T15:00:58.250Z,10.85
2022-11-16T15:03:30.315Z,10.76
2022-11-16T15:06:00.314Z,10.67
2022-11-16T15:08:33.590Z,10.81
2022-11-16T15:11:00.928Z,10.54
2022-11-16T15:13:27.680Z,10.71
2022-11-16T15:16:15.932Z,10.76
2022-11-16T15:18:56.568Z,10.80
2022-11-16T15:21:24.536Z,10.75
2022-11-16T15:24:15.631Z,10.73
2022-11-16T15:26:38.703Z,10.79
2022-11-16T15:29:05.801Z,10.78
2022-11-16T15:31:35.116Z,10.79
2022-11-16T15:34:01.724Z,10.84
2022-11-16T15:36:41.220Z,10.78
2022-11-16T15:39:23.677Z,10.75
2022-11-16T15:41:51.273Z,10.84
2022-11-16T15:44:21.109Z,10.81
2022-11-16T15:46:52.041Z,10.77
2022-11-16T15:49:36.964Z,10.58
2022-11-16T15:52:04.137Z,10.54
2022-11-16T15:54:51.781Z,10.73
2022-11-16T15:57:20.163Z,10.73
2022-11-16T15:59:54.575Z,10.61
2022-11-16T16:02:25.007Z,10.62
2022-11-16T16:04:51.927Z,10.52
2022-11-16T16:07:37.307Z,10.51
2022-11-16T16:10:19.036Z,10.54
2022-11-16T16:13:23.930Z,10.50
2022-11-16T16:16:26.482Z,10.26
2022-11-16T16:18:55.773Z,10.18
2022-11-16T16:21:22.896Z,10.18
2022-11-16T16:23:52.697Z,10.24
2022-11-16T16:26:21.706Z,10.19
2022-11-16T16:28:48.486Z,10.37
2022-11-16T16:31:18.545Z,10.06
2022-11-16T16:33:45.587Z,10.40
2022-11-16T16:36:13.595Z,9.91
2022-11-16T16:38:40.468Z,10.11
2022-11-16T16:41:07.733Z,10.50
2022-11-16T16:43:35.459Z,10.09
2022-11-16T16:46:04.217Z,10.55
2022-11-16T16:48:31.144Z,10.49
2022-11-16T16:50:58.054Z,10.53
2022-11-16T16:53:24.968Z,10.25
2022-11-16T16:55:52.021Z,10.39
2022-11-16T16:58:19.240Z,10.12
2022-11-16T17:00:46.371Z,10.04
2022-11-16T17:03:13.107Z,9.76
2022-11-16T17:05:39.856Z,10.01
2022-11-16T17:08:07.791Z,9.73
2022-11-16T17:10:34.485Z,9.66
2022-11-16T17:13:03.218Z,9.45
2022-11-16T17:15:30.360Z,9.25
2022-11-16T17:17:58.961Z,9.51
2022-11-16T17:20:25.781Z,9.23
2022-11-16T17:22:52.786Z,8.90
2022-11-16T17:25:20.758Z,9.23
2022-11-16T17:27:47.551Z,9.15
2022-11-16T17:30:15.055Z,9.28
2022-11-16T17:32:41.885Z,9.03
2022-11-16T17:35:09.276Z,9.26
2022-11-16T17:37:36.170Z,9.15
2022-11-16T17:40:03.320Z,9.25
2022-11-16T17:42:32.596Z,9.26
2022-11-16T17:44:59.446Z,9.13
2022-11-16T17:47:26.123Z,9.27
2022-11-16T17:49:52.997Z,8.92
2022-11-16T17:52:19.878Z,9.36
2022-11-16T17:54:46.439Z,9.40
2022-11-16T17:57:13.216Z,9.18
2022-11-16T17:59:39.894Z,9.15
2022-11-16T18:02:07.008Z,9.04
2022-11-16T18:04:33.986Z,9.13
2022-11-16T18:07:01.284Z,9.31
2022-11-16T18:09:27.918Z,9.34
2022-11-16T18:11:54.844Z,9.21
2022-11-16T18:14:22.418Z,9.26
2022-11-16T18:16:49.131Z,9.44
2022-11-16T18:19:18.093Z,9.34
2022-11-16T18:21:45.613Z,9.31
2022-11-16T18:24:13.158Z,9.14
2022-11-16T18:26:41.097Z,9.26
2022-11-16T18:29:09.357Z,9.01
2022-11-16T18:31:35.922Z,9.06
2022-11-16T18:34:02.990Z,9.18
2022-11-16T18:36:29.901Z,9.28
2022-11-16T18:38:56.533Z,9.23
2022-11-16T18:41:55.096Z,9.44
2022-11-16T18:44:22.437Z,9.26
2022-11-16T18:46:49.170Z,9.26
2022-11-16T18:49:16.082Z,9.34
2022-11-16T18:51:42.738Z,9.30
2022-11-16T18:54:09.704Z,9.43
2022-11-16T18:56:37.068Z,9.36
2022-11-16T18:59:04.058Z,9.34
2022-11-16T19:01:31.031Z,9.14
2022-11-16T19:03:57.954Z,9.07
2022-11-16T19:06:24.732Z,9.24
2022-11-16T19:08:59.315Z,9.05
2022-11-16T19:11:28.429Z,8.90
2022-11-16T19:13:58.585Z,8.89
2022-11-16T19:16:25.589Z,8.69
2022-11-16T19:18:53.004Z,9.05
2022-11-16T19:21:19.925Z,8.94
2022-11-16T19:23:49.002Z,9.13
2022-11-16T19:26:17.586Z,9.10
2022-11-16T19:28:46.169Z,9.14
2022-11-16T19:31:33.157Z,9.20
2022-11-16T19:34:03.313Z,9.25
2022-11-16T19:36:31.842Z,9.30
2022-11-16T19:38:58.768Z,9.23
2022-11-16T19:41:26.564Z,9.28
2022-11-16T19:43:59.086Z,8.99
2022-11-16T19:46:28.049Z,9.26
2022-11-16T19:48:55.834Z,9.42
2022-11-16T19:51:31.640Z,9.34
2022-11-16T19:54:00.094Z,8.95
2022-11-16T19:56:27.619Z,9.22
2022-11-16T19:58:54.708Z,9.35
2022-11-16T20:01:28.122Z,9.38
2022-11-16T20:03:57.470Z,9.35
2022-11-16T20:06:29.330Z,9.42
2022-11-16T20:09:00.566Z,9.04
2022-11-16T20:11:36.117Z,9.15
2022-11-16T20:14:05.396Z,9.25
2022-11-16T20:16:38.695Z,9.30
2022-11-16T20:19:07.618Z,9.21
2022-11-16T20:21:39.707Z,9.36
2022-11-16T20:24:09.004Z,9.35
2022-11-16T20:26:37.687Z,9.39
2022-11-16T20:29:04.574Z,9.26
2022-11-16T20:31:33.075Z,9.30
2022-11-16T20:34:02.493Z,9.28
2022-11-16T20:36:31.514Z,9.38
2022-11-16T20:38:59.481Z,9.35
2022-11-16T20:41:28.298Z,9.27
2022-11-16T20:43:57.049Z,9.18
2022-11-16T20:46:28.939Z,9.19
2022-11-16T20:48:57.290Z,9.21
2022-11-16T20:51:24.145Z,9.13
2022-11-16T20:53:52.091Z,9.23
2022-11-16T20:56:20.434Z,9.27
2022-11-16T20:58:48.037Z,9.21
2022-11-16T21:01:29.040Z,9.17
2022-11-16T21:03:57.523Z,9.19
2022-11-16T21:06:24.642Z,9.27
2022-11-16T21:08:52.181Z,9.11
2022-11-16T21:11:51.615Z,9.23
2022-11-16T21:14:19.989Z,9.25
2022-11-16T21:16:46.770Z,9.13
2022-11-16T21:19:13.901Z,9.18
2022-11-16T21:21:41.372Z,9.16
2022-11-16T21:24:09.136Z,9.12
2022-11-16T21:26:37.322Z,9.16
2022-11-16T21:29:04.794Z,9.19
2022-11-16T21:31:34.302Z,9.14
2022-11-16T21:34:01.635Z,9.19
2022-11-16T21:36:30.759Z,9.16
2022-11-16T21:39:00.613Z,9.01
2022-11-16T21:41:27.865Z,9.07
2022-11-16T21:43:55.352Z,9.23
2022-11-16T21:46:27.340Z,9.09
2022-11-16T21:48:56.465Z,9.25
2022-11-16T21:51:26.080Z,9.18
2022-11-16T21:53:52.968Z,9.03
2022-11-16T21:56:22.214Z,8.84
2022-11-16T21:58:50.601Z,9.08
2022-11-16T22:01:17.373Z,9.19
2022-11-16T22:03:44.860Z,9.03
2022-11-16T22:06:33.410Z,9.12
2022-11-16T22:09:00.651Z,9.09
2022-11-16T22:11:27.306Z,9.24
2022-11-16T22:13:53.863Z,9.20
2022-11-16T22:16:23.339Z,9.36
2022-11-16T22:18:50.284Z,9.20
2022-11-16T22:21:17.206Z,9.28
2022-11-16T22:23:43.863Z,9.27
2022-11-16T22:26:12.905Z,9.02
2022-11-16T22:28:39.956Z,9.18
2022-11-16T22:31:09.924Z,8.99
2022-11-16T22:33:37.655Z,8.93
2022-11-16T22:36:05.422Z,8.72
2022-11-16T22:38:33.474Z,8.92
2022-11-16T22:41:00.205Z,9.01
2022-11-16T22:43:29.778Z,8.97
2022-11-16T22:46:05.307Z,8.84
2022-11-16T22:48:34.762Z,8.78
2022-11-16T22:51:05.957Z,8.71
2022-11-16T22:53:33.145Z,8.83
2022-11-16T22:56:07.966Z,8.89
2022-11-16T22:58:35.626Z,8.95
2022-11-16T23:01:02.904Z,8.99
2022-11-16T23:03:31.142Z,9.01
2022-11-16T23:05:58.055Z,8.66
2022-11-16T23:08:25.070Z,8.95
2022-11-16T23:11:26.752Z,8.89
2022-11-16T23:14:13.033Z,8.69
2022-11-16T23:16:40.510Z,8.92
2022-11-16T23:19:27.117Z,8.63
2022-11-16T23:22:13.451Z,8.79
2022-11-16T23:24:59.111Z,8.51
2022-11-16T23:27:29.512Z,8.79
2022-11-16T23:30:01.685Z,8.79
2022-11-16T23:32:29.672Z,8.75
2022-11-16T23:34:56.393Z,8.61
2022-11-16T23:37:23.528Z,8.73
2022-11-16T23:39:50.173Z,8.79
2022-11-16T23:42:35.610Z,8.71
2022-11-16T23:45:02.846Z,8.75
2022-11-16T23:47:29.589Z,8.76
2022-11-16T23:49:56.283Z,8.84
2022-11-16T23:52:23.164Z,8.79
2022-11-16T23:54:49.912Z,8.35
2022-11-16T23:57:16.741Z,8.93
2022-11-16T23:59:43.735Z,9.02
